sensor_id;sensor_type;location;lat;lon;timestamp;P1;durP1;ratioP1;P2;durP2;ratioP2
9657;SDS011;4867;48.112;11.622;2022-08-30T00:01:04;14.60;;;13.30;;
9657;SDS011;4867;48.112;11.622;2022-08-30T00:03:42;14.87;;;13.47;;
9657;SDS011;4867;48.112;11.622;2022-08-30T00:06:12;15.13;;;13.63;;
9657;SDS011;4867;48.112;11.622;2022-08-30T00:08:40;14.53;;;13.07;;
9657;SDS011;4867;48.112;11.622;2022-08-30T00:11:09;15.07;;;13.67;;
9657;SDS011;4867;48.112;11.622;2022-08-30T00:13:40;16.20;;;14.60;;
9657;SDS011;4867;48.112;11.622;2022-08-30T00:16:08;14.20;;;13.00;;
9657;SDS011;4867;48.112;11.622;2022-08-30T00:18:37;16.10;;;14.50;;
9657;SDS011;4867;48.112;11.622;2022-08-30T00:21:05;15.67;;;14.17;;
9657;SDS011;4867;48.112;11.622;2022-08-30T00:23:33;15.20;;;13.90;;
9657;SDS011;4867;48.112;11.622;2022-08-30T00:26:00;15.47;;;13.93;;
9657;SDS011;4867;48.112;11.622;2022-08-30T00:28:28;15.27;;;13.77;;
9657;SDS011;4867;48.112;11.622;2022-08-30T00:30:56;14.70;;;13.23;;
9657;SDS011;4867;48.112;11.622;2022-08-30T00:33:23;13.80;;;12.63;;
9657;SDS011;4867;48.112;11.622;2022-08-30T00:35:50;15.37;;;14.07;;
9657;SDS011;4867;48.112;11.622;2022-08-30T00:38:17;14.93;;;13.43;;
9657;SDS011;4867;48.112;11.622;2022-08-30T00:40:44;15.03;;;13.47;;
9657;SDS011;4867;48.112;11.622;2022-08-30T00:43:20;14.27;;;12.97;;
9657;SDS011;4867;48.112;11.622;2022-08-30T00:45:53;14.50;;;13.20;;
9657;SDS011;4867;48.112;11.622;2022-08-30T00:48:20;14.70;;;13.40;;
9657;SDS011;4867;48.112;11.622;2022-08-30T00:50:50;13.67;;;12.53;;
9657;SDS011;4867;48.112;11.622;2022-08-30T00:53:20;13.97;;;12.77;;
9657;SDS011;4867;48.112;11.622;2022-08-30T00:55:49;15.13;;;13.53;;
9657;SDS011;4867;48.112;11.622;2022-08-30T00:58:18;15.07;;;13.67;;
9657;SDS011;4867;48.112;11.622;2022-08-30T01:00:49;16.10;;;14.63;;
9657;SDS011;4867;48.112;11.622;2022-08-30T01:03:19;13.90;;;12.67;;
9657;SDS011;4867;48.112;11.622;2022-08-30T01:05:47;14.27;;;12.87;;
9657;SDS011;4867;48.112;11.622;2022-08-30T01:08:19;16.07;;;14.50;;
9657;SDS011;4867;48.112;11.622;2022-08-30T01:10:47;14.47;;;13.07;;
9657;SDS011;4867;48.112;11.622;2022-08-30T01:13:16;13.97;;;12.53;;
9657;SDS011;4867;48.112;11.622;2022-08-30T01:15:43;14.70;;;13.23;;
9657;SDS011;4867;48.112;11.622;2022-08-30T01:18:11;15.60;;;14.20;;
9657;SDS011;4867;48.112;11.622;2022-08-30T01:20:49;14.90;;;13.40;;
9657;SDS011;4867;48.112;11.622;2022-08-30T01:23:36;15.30;;;13.80;;
9657;SDS011;4867;48.112;11.622;2022-08-30T01:26:05;14.97;;;13.37;;
9657;SDS011;4867;48.112;11.622;2022-08-30T01:28:33;16.00;;;14.30;;
9657;SDS011;4867;48.112;11.622;2022-08-30T01:31:00;14.33;;;12.83;;
9657;SDS011;4867;48.112;11.622;2022-08-30T01:33:27;15.47;;;13.97;;
9657;SDS011;4867;48.112;11.622;2022-08-30T01:35:57;14.43;;;13.33;;
9657;SDS011;4867;48.112;11.622;2022-08-30T01:38:32;14.20;;;12.90;;
9657;SDS011;4867;48.112;11.622;2022-08-30T01:41:08;14.50;;;13.30;;
9657;SDS011;4867;48.112;11.622;2022-08-30T01:43:38;15.70;;;14.33;;
9657;SDS011;4867;48.112;11.622;2022-08-30T01:46:04;17.13;;;15.43;;
9657;SDS011;4867;48.112;11.622;2022-08-30T01:48:32;14.93;;;13.63;;
9657;SDS011;4867;48.112;11.622;2022-08-30T01:51:00;14.40;;;13.03;;
9657;SDS011;4867;48.112;11.622;2022-08-30T01:53:28;13.63;;;12.33;;
9657;SDS011;4867;48.112;11.622;2022-08-30T01:55:54;13.83;;;12.63;;
9657;SDS011;4867;48.112;11.622;2022-08-30T01:58:21;14.07;;;12.40;;
9657;SDS011;4867;48.112;11.622;2022-08-30T02:00:49;12.87;;;11.70;;
9657;SDS011;4867;48.112;11.622;2022-08-30T02:03:18;13.80;;;12.60;;
9657;SDS011;4867;48.112;11.622;2022-08-30T02:05:45;12.73;;;11.63;;
9657;SDS011;4867;48.112;11.622;2022-08-30T02:08:13;14.93;;;13.63;;
9657;SDS011;4867;48.112;11.622;2022-08-30T02:10:40;14.33;;;13.07;;
9657;SDS011;4867;48.112;11.622;2022-08-30T02:13:08;15.70;;;14.17;;
9657;SDS011;4867;48.112;11.622;2022-08-30T02:15:38;14.07;;;12.77;;
9657;SDS011;4867;48.112;11.622;2022-08-30T02:18:07;14.43;;;13.03;;
9657;SDS011;4867;48.112;11.622;2022-08-30T02:20:36;15.13;;;13.73;;
9657;SDS011;4867;48.112;11.622;2022-08-30T02:23:04;14.67;;;13.27;;
9657;SDS011;4867;48.112;11.622;2022-08-30T02:25:32;14.40;;;13.00;;
9657;SDS011;4867;48.112;11.622;2022-08-30T02:27:59;19.07;;;14.50;;
9657;SDS011;4867;48.112;11.622;2022-08-30T02:30:26;14.30;;;13.10;;
9657;SDS011;4867;48.112;11.622;2022-08-30T02:32:53;14.63;;;13.23;;
9657;SDS011;4867;48.112;11.622;2022-08-30T02:35:20;14.47;;;13.10;;
9657;SDS011;4867;48.112;11.622;2022-08-30T02:37:47;14.07;;;12.63;;
9657;SDS011;4867;48.112;11.622;2022-08-30T02:40:14;15.20;;;13.70;;
9657;SDS011;4867;48.112;11.622;2022-08-30T02:42:43;15.80;;;14.43;;
9657;SDS011;4867;48.112;11.622;2022-08-30T02:45:10;15.47;;;14.00;;
9657;SDS011;4867;48.112;11.622;2022-08-30T02:47:37;15.20;;;13.70;;
9657;SDS011;4867;48.112;11.622;2022-08-30T02:50:07;13.50;;;12.17;;
9657;SDS011;4867;48.112;11.622;2022-08-30T02:52:36;14.73;;;13.43;;
9657;SDS011;4867;48.112;11.622;2022-08-30T02:55:05;14.20;;;12.90;;
9657;SDS011;4867;48.112;11.622;2022-08-30T02:57:33;13.67;;;12.43;;
9657;SDS011;4867;48.112;11.622;2022-08-30T03:00:00;15.20;;;13.60;;
9657;SDS011;4867;48.112;11.622;2022-08-30T03:02:27;14.63;;;13.30;;
9657;SDS011;4867;48.112;11.622;2022-08-30T03:04:55;15.00;;;13.50;;
9657;SDS011;4867;48.112;11.622;2022-08-30T03:07:23;13.53;;;12.17;;
9657;SDS011;4867;48.112;11.622;2022-08-30T03:09:49;15.80;;;13.43;;
9657;SDS011;4867;48.112;11.622;2022-08-30T03:12:16;14.93;;;13.67;;
9657;SDS011;4867;48.112;11.622;2022-08-30T03:14:44;15.93;;;14.33;;
9657;SDS011;4867;48.112;11.622;2022-08-30T03:17:11;14.13;;;12.90;;
9657;SDS011;4867;48.112;11.622;2022-08-30T03:19:41;14.30;;;13.00;;
9657;SDS011;4867;48.112;11.622;2022-08-30T03:22:10;15.03;;;13.57;;
9657;SDS011;4867;48.112;11.622;2022-08-30T03:24:37;15.47;;;14.17;;
9657;SDS011;4867;48.112;11.622;2022-08-30T03:27:06;15.60;;;14.10;;
9657;SDS011;4867;48.112;11.622;2022-08-30T03:29:33;14.70;;;13.30;;
9657;SDS011;4867;48.112;11.622;2022-08-30T03:32:00;15.80;;;14.43;;
9657;SDS011;4867;48.112;11.622;2022-08-30T03:34:28;14.40;;;13.10;;
9657;SDS011;4867;48.112;11.622;2022-08-30T03:36:55;15.87;;;13.27;;
9657;SDS011;4867;48.112;11.622;2022-08-30T03:39:22;13.63;;;12.40;;
9657;SDS011;4867;48.112;11.622;2022-08-30T03:41:49;13.30;;;12.00;;
9657;SDS011;4867;48.112;11.622;2022-08-30T03:44:17;13.63;;;12.23;;
9657;SDS011;4867;48.112;11.622;2022-08-30T03:46:45;12.97;;;11.77;;
9657;SDS011;4867;48.112;11.622;2022-08-30T03:49:12;12.63;;;11.50;;
9657;SDS011;4867;48.112;11.622;2022-08-30T03:51:39;14.00;;;12.57;;
9657;SDS011;4867;48.112;11.622;2022-08-30T03:54:06;13.73;;;12.43;;
9657;SDS011;4867;48.112;11.622;2022-08-30T03:56:33;12.23;;;11.13;;
9657;SDS011;4867;48.112;11.622;2022-08-30T03:59:00;15.17;;;13.80;;
9657;SDS011;4867;48.112;11.622;2022-08-30T04:01:27;12.80;;;11.70;;
9657;SDS011;4867;48.112;11.622;2022-08-30T04:03:54;16.40;;;13.57;;
9657;SDS011;4867;48.112;11.622;2022-08-30T04:06:22;13.73;;;12.37;;
9657;SDS011;4867;48.112;11.622;2022-08-30T04:08:49;13.87;;;12.67;;
9657;SDS011;4867;48.112;11.622;2022-08-30T04:11:19;13.10;;;11.90;;
9657;SDS011;4867;48.112;11.622;2022-08-30T04:13:47;12.30;;;11.17;;
9657;SDS011;4867;48.112;11.622;2022-08-30T04:16:17;12.00;;;10.97;;
9657;SDS011;4867;48.112;11.622;2022-08-30T04:18:45;12.27;;;10.97;;
9657;SDS011;4867;48.112;11.622;2022-08-30T04:21:12;12.30;;;11.20;;
9657;SDS011;4867;48.112;11.622;2022-08-30T04:23:41;11.17;;;10.13;;
9657;SDS011;4867;48.112;11.622;2022-08-30T04:26:09;16.30;;;14.60;;
9657;SDS011;4867;48.112;11.622;2022-08-30T04:28:36;13.30;;;12.20;;
9657;SDS011;4867;48.112;11.622;2022-08-30T04:31:10;14.83;;;13.40;;
9657;SDS011;4867;48.112;11.622;2022-08-30T04:33:40;13.07;;;11.80;;
9657;SDS011;4867;48.112;11.622;2022-08-30T04:36:08;13.40;;;12.10;;
9657;SDS011;4867;48.112;11.622;2022-08-30T04:38:36;13.97;;;12.70;;
9657;SDS011;4867;48.112;11.622;2022-08-30T04:41:08;16.43;;;13.77;;
9657;SDS011;4867;48.112;11.622;2022-08-30T04:43:37;14.40;;;13.10;;
9657;SDS011;4867;48.112;11.622;2022-08-30T04:46:06;13.47;;;12.17;;
9657;SDS011;4867;48.112;11.622;2022-08-30T04:48:35;13.90;;;12.50;;
9657;SDS011;4867;48.112;11.622;2022-08-30T04:51:03;14.30;;;12.90;;
9657;SDS011;4867;48.112;11.622;2022-08-30T04:53:32;13.13;;;11.93;;
9657;SDS011;4867;48.112;11.622;2022-08-30T04:56:00;12.50;;;11.40;;
9657;SDS011;4867;48.112;11.622;2022-08-30T04:58:27;12.93;;;11.60;;
9657;SDS011;4867;48.112;11.622;2022-08-30T05:00:54;13.17;;;11.97;;
9657;SDS011;4867;48.112;11.622;2022-08-30T05:03:21;11.77;;;10.77;;
9657;SDS011;4867;48.112;11.622;2022-08-30T05:05:48;12.03;;;10.90;;
9657;SDS011;4867;48.112;11.622;2022-08-30T05:08:18;12.77;;;11.47;;
9657;SDS011;4867;48.112;11.622;2022-08-30T05:10:50;12.40;;;11.40;;
9657;SDS011;4867;48.112;11.622;2022-08-30T05:13:18;13.37;;;10.80;;
9657;SDS011;4867;48.112;11.622;2022-08-30T05:15:52;12.03;;;10.80;;
9657;SDS011;4867;48.112;11.622;2022-08-30T05:18:19;13.03;;;11.43;;
9657;SDS011;4867;48.112;11.622;2022-08-30T05:20:46;12.50;;;11.40;;
9657;SDS011;4867;48.112;11.622;2022-08-30T05:23:14;14.07;;;11.40;;
9657;SDS011;4867;48.112;11.622;2022-08-30T05:25:41;12.87;;;11.67;;
9657;SDS011;4867;48.112;11.622;2022-08-30T05:28:08;12.67;;;11.53;;
9657;SDS011;4867;48.112;11.622;2022-08-30T05:30:36;13.07;;;11.60;;
9657;SDS011;4867;48.112;11.622;2022-08-30T05:33:03;12.37;;;11.17;;
9657;SDS011;4867;48.112;11.622;2022-08-30T05:35:30;12.47;;;11.17;;
9657;SDS011;4867;48.112;11.622;2022-08-30T05:37:57;14.33;;;11.30;;
9657;SDS011;4867;48.112;11.622;2022-08-30T05:40:25;11.10;;;10.17;;
9657;SDS011;4867;48.112;11.622;2022-08-30T05:42:54;12.67;;;11.47;;
9657;SDS011;4867;48.112;11.622;2022-08-30T05:45:21;12.30;;;11.30;;
9657;SDS011;4867;48.112;11.622;2022-08-30T05:47:49;12.10;;;11.00;;
9657;SDS011;4867;48.112;11.622;2022-08-30T05:50:17;10.63;;;9.83;;
9657;SDS011;4867;48.112;11.622;2022-08-30T05:52:45;11.40;;;10.40;;
9657;SDS011;4867;48.112;11.622;2022-08-30T05:55:12;11.50;;;10.50;;
9657;SDS011;4867;48.112;11.622;2022-08-30T05:57:40;11.53;;;10.53;;
9657;SDS011;4867;48.112;11.622;2022-08-30T06:00:09;11.93;;;10.83;;
9657;SDS011;4867;48.112;11.622;2022-08-30T06:02:39;11.60;;;10.40;;
9657;SDS011;4867;48.112;11.622;2022-08-30T06:05:07;11.00;;;10.00;;
9657;SDS011;4867;48.112;11.622;2022-08-30T06:07:38;10.97;;;9.97;;
9657;SDS011;4867;48.112;11.622;2022-08-30T06:10:05;11.27;;;10.27;;
9657;SDS011;4867;48.112;11.622;2022-08-30T06:12:32;11.67;;;10.57;;
9657;SDS011;4867;48.112;11.622;2022-08-30T06:14:59;12.97;;;10.13;;
9657;SDS011;4867;48.112;11.622;2022-08-30T06:17:26;11.30;;;10.30;;
9657;SDS011;4867;48.112;11.622;2022-08-30T06:19:53;11.83;;;10.70;;
9657;SDS011;4867;48.112;11.622;2022-08-30T06:22:20;12.30;;;11.10;;
9657;SDS011;4867;48.112;11.622;2022-08-30T06:24:47;10.83;;;9.73;;
9657;SDS011;4867;48.112;11.622;2022-08-30T06:27:23;10.07;;;9.23;;
9657;SDS011;4867;48.112;11.622;2022-08-30T06:29:50;11.00;;;9.97;;
9657;SDS011;4867;48.112;11.622;2022-08-30T06:32:17;10.90;;;9.83;;
9657;SDS011;4867;48.112;11.622;2022-08-30T06:34:45;10.53;;;9.33;;
9657;SDS011;4867;48.112;11.622;2022-08-30T06:37:12;10.77;;;9.50;;
9657;SDS011;4867;48.112;11.622;2022-08-30T06:39:55;10.13;;;9.13;;
9657;SDS011;4867;48.112;11.622;2022-08-30T06:42:23;8.83;;;8.03;;
9657;SDS011;4867;48.112;11.622;2022-08-30T06:45:00;10.67;;;9.60;;
9657;SDS011;4867;48.112;11.622;2022-08-30T06:47:27;8.97;;;8.27;;
9657;SDS011;4867;48.112;11.622;2022-08-30T06:49:55;9.40;;;8.57;;
9657;SDS011;4867;48.112;11.622;2022-08-30T06:52:24;10.07;;;9.07;;
9657;SDS011;4867;48.112;11.622;2022-08-30T06:54:52;10.57;;;9.23;;
9657;SDS011;4867;48.112;11.622;2022-08-30T06:57:20;9.60;;;7.67;;
9657;SDS011;4867;48.112;11.622;2022-08-30T06:59:47;9.70;;;8.90;;
9657;SDS011;4867;48.112;11.622;2022-08-30T07:02:14;10.50;;;9.60;;
9657;SDS011;4867;48.112;11.622;2022-08-30T07:04:41;9.57;;;8.67;;
9657;SDS011;4867;48.112;11.622;2022-08-30T07:07:09;9.37;;;8.60;;
9657;SDS011;4867;48.112;11.622;2022-08-30T07:09:36;9.00;;;8.13;;
9657;SDS011;4867;48.112;11.622;2022-08-30T07:12:09;8.80;;;8.00;;
9657;SDS011;4867;48.112;11.622;2022-08-30T07:14:37;10.07;;;9.10;;
9657;SDS011;4867;48.112;11.622;2022-08-30T07:17:06;9.23;;;8.40;;
9657;SDS011;4867;48.112;11.622;2022-08-30T07:19:59;9.20;;;8.30;;
9657;SDS011;4867;48.112;11.622;2022-08-30T07:22:26;9.90;;;8.90;;
9657;SDS011;4867;48.112;11.622;2022-08-30T07:24:54;9.67;;;8.13;;
9657;SDS011;4867;48.112;11.622;2022-08-30T07:27:21;9.80;;;8.77;;
9657;SDS011;4867;48.112;11.622;2022-08-30T07:29:48;10.40;;;8.47;;
9657;SDS011;4867;48.112;11.622;2022-08-30T07:32:16;8.70;;;8.00;;
9657;SDS011;4867;48.112;11.622;2022-08-30T07:34:43;9.17;;;8.27;;
9657;SDS011;4867;48.112;11.622;2022-08-30T07:37:10;10.03;;;9.07;;
9657;SDS011;4867;48.112;11.622;2022-08-30T07:39:44;10.27;;;9.27;;
9657;SDS011;4867;48.112;11.622;2022-08-30T07:42:13;10.77;;;9.10;;
9657;SDS011;4867;48.112;11.622;2022-08-30T07:44:41;9.33;;;8.53;;
9657;SDS011;4867;48.112;11.622;2022-08-30T07:47:09;13.60;;;10.17;;
9657;SDS011;4867;48.112;11.622;2022-08-30T07:49:36;15.53;;;9.60;;
9657;SDS011;4867;48.112;11.622;2022-08-30T07:52:03;10.10;;;8.63;;
9657;SDS011;4867;48.112;11.622;2022-08-30T07:54:30;9.13;;;8.23;;
9657;SDS011;4867;48.112;11.622;2022-08-30T07:56:57;9.97;;;9.03;;
9657;SDS011;4867;48.112;11.622;2022-08-30T07:59:24;10.77;;;9.40;;
9657;SDS011;4867;48.112;11.622;2022-08-30T08:01:51;13.27;;;9.40;;
9657;SDS011;4867;48.112;11.622;2022-08-30T08:04:18;13.77;;;10.10;;
9657;SDS011;4867;48.112;11.622;2022-08-30T08:06:45;12.60;;;9.77;;
9657;SDS011;4867;48.112;11.622;2022-08-30T08:09:12;12.37;;;8.97;;
9657;SDS011;4867;48.112;11.622;2022-08-30T08:11:39;9.80;;;8.80;;
9657;SDS011;4867;48.112;11.622;2022-08-30T08:14:07;10.03;;;9.13;;
9657;SDS011;4867;48.112;11.622;2022-08-30T08:16:34;9.57;;;8.67;;
9657;SDS011;4867;48.112;11.622;2022-08-30T08:19:02;9.77;;;8.33;;
9657;SDS011;4867;48.112;11.622;2022-08-30T08:21:33;9.60;;;8.37;;
9657;SDS011;4867;48.112;11.622;2022-08-30T08:24:00;8.87;;;8.10;;
9657;SDS011;4867;48.112;11.622;2022-08-30T08:26:28;9.53;;;8.73;;
9657;SDS011;4867;48.112;11.622;2022-08-30T08:28:54;13.67;;;9.30;;
9657;SDS011;4867;48.112;11.622;2022-08-30T08:31:23;9.80;;;8.13;;
9657;SDS011;4867;48.112;11.622;2022-08-30T08:33:58;11.97;;;9.40;;
9657;SDS011;4867;48.112;11.622;2022-08-30T08:36:31;9.90;;;8.90;;
9657;SDS011;4867;48.112;11.622;2022-08-30T08:38:59;9.47;;;8.20;;
9657;SDS011;4867;48.112;11.622;2022-08-30T08:49:41;8.70;;;7.90;;
9657;SDS011;4867;48.112;11.622;2022-08-30T08:52:12;8.77;;;8.07;;
9657;SDS011;4867;48.112;11.622;2022-08-30T08:55:19;9.07;;;7.80;;
9657;SDS011;4867;48.112;11.622;2022-08-30T08:57:48;8.87;;;7.67;;
9657;SDS011;4867;48.112;11.622;2022-08-30T09:00:17;8.40;;;7.60;;
9657;SDS011;4867;48.112;11.622;2022-08-30T09:02:52;8.73;;;8.03;;
9657;SDS011;4867;48.112;11.622;2022-08-30T09:05:28;9.00;;;8.03;;
9657;SDS011;4867;48.112;11.622;2022-08-30T09:08:05;10.70;;;8.03;;
9657;SDS011;4867;48.112;11.622;2022-08-30T09:10:35;12.37;;;8.30;;
9657;SDS011;4867;48.112;11.622;2022-08-30T09:13:15;8.37;;;7.57;;
9657;SDS011;4867;48.112;11.622;2022-08-30T09:15:44;12.87;;;8.17;;
9657;SDS011;4867;48.112;11.622;2022-08-30T09:18:19;8.93;;;8.10;;
9657;SDS011;4867;48.112;11.622;2022-08-30T09:21:07;8.90;;;8.10;;
9657;SDS011;4867;48.112;11.622;2022-08-30T09:23:35;8.30;;;7.00;;
9657;SDS011;4867;48.112;11.622;2022-08-30T09:26:04;9.77;;;7.73;;
9657;SDS011;4867;48.112;11.622;2022-08-30T09:28:46;8.03;;;7.33;;
9657;SDS011;4867;48.112;11.622;2022-08-30T09:31:23;8.27;;;7.57;;
9657;SDS011;4867;48.112;11.622;2022-08-30T09:36:26;8.47;;;7.77;;
9657;SDS011;4867;48.112;11.622;2022-08-30T09:38:56;7.93;;;7.27;;
9657;SDS011;4867;48.112;11.622;2022-08-30T09:41:29;8.10;;;7.40;;
9657;SDS011;4867;48.112;11.622;2022-08-30T09:44:24;7.27;;;6.67;;
9657;SDS011;4867;48.112;11.622;2022-08-30T09:46:54;7.28;;;6.68;;
9657;SDS011;4867;48.112;11.622;2022-08-30T09:49:34;7.70;;;6.90;;
9657;SDS011;4867;48.112;11.622;2022-08-30T09:55:06;7.20;;;6.55;;
9657;SDS011;4867;48.112;11.622;2022-08-30T09:57:38;8.27;;;5.93;;
9657;SDS011;4867;48.112;11.622;2022-08-30T10:00:18;6.70;;;6.10;;
9657;SDS011;4867;48.112;11.622;2022-08-30T10:02:58;7.77;;;6.97;;
9657;SDS011;4867;48.112;11.622;2022-08-30T10:11:37;7.40;;;6.80;;
9657;SDS011;4867;48.112;11.622;2022-08-30T10:25:10;6.30;;;5.85;;
9657;SDS011;4867;48.112;11.622;2022-08-30T10:27:47;6.68;;;6.07;;
9657;SDS011;4867;48.112;11.622;2022-08-30T10:30:21;6.88;;;6.30;;
9657;SDS011;4867;48.112;11.622;2022-08-30T10:32:51;7.18;;;6.43;;
9657;SDS011;4867;48.112;11.622;2022-08-30T10:35:43;6.32;;;5.40;;
9657;SDS011;4867;48.112;11.622;2022-08-30T10:38:36;6.15;;;5.60;;
9657;SDS011;4867;48.112;11.622;2022-08-30T10:41:19;7.78;;;7.07;;
9657;SDS011;4867;48.112;11.622;2022-08-30T10:49:28;6.95;;;6.30;;
9657;SDS011;4867;48.112;11.622;2022-08-30T10:52:16;6.38;;;5.88;;
9657;SDS011;4867;48.112;11.622;2022-08-30T10:54:49;6.95;;;6.28;;
9657;SDS011;4867;48.112;11.622;2022-08-30T10:57:22;6.30;;;5.70;;
9657;SDS011;4867;48.112;11.622;2022-08-30T10:59:53;8.82;;;6.30;;
9657;SDS011;4867;48.112;11.622;2022-08-30T11:02:35;7.60;;;6.90;;
9657;SDS011;4867;48.112;11.622;2022-08-30T11:14:08;6.07;;;5.47;;
9657;SDS011;4867;48.112;11.622;2022-08-30T11:16:40;6.28;;;5.70;;
9657;SDS011;4867;48.112;11.622;2022-08-30T11:19:36;6.63;;;5.32;;
9657;SDS011;4867;48.112;11.622;2022-08-30T11:22:10;8.63;;;6.03;;
9657;SDS011;4867;48.112;11.622;2022-08-30T11:33:03;6.20;;;5.60;;
9657;SDS011;4867;48.112;11.622;2022-08-30T11:35:50;6.55;;;5.40;;
9657;SDS011;4867;48.112;11.622;2022-08-30T11:46:16;6.10;;;5.60;;
9657;SDS011;4867;48.112;11.622;2022-08-30T11:55:03;6.68;;;6.10;;
9657;SDS011;4867;48.112;11.622;2022-08-30T12:00:34;6.63;;;5.82;;
9657;SDS011;4867;48.112;11.622;2022-08-30T12:05:49;7.55;;;5.78;;
9657;SDS011;4867;48.112;11.622;2022-08-30T12:10:55;6.63;;;5.95;;
9657;SDS011;4867;48.112;11.622;2022-08-30T12:16:06;9.98;;;5.82;;
9657;SDS011;4867;48.112;11.622;2022-08-30T12:18:42;6.38;;;5.75;;
9657;SDS011;4867;48.112;11.622;2022-08-30T12:26:53;16.23;;;10.02;;
9657;SDS011;4867;48.112;11.622;2022-08-30T12:29:27;9.10;;;7.10;;
9657;SDS011;4867;48.112;11.622;2022-08-30T12:32:00;5.90;;;5.40;;
9657;SDS011;4867;48.112;11.622;2022-08-30T12:34:32;62.97;;;40.65;;
9657;SDS011;4867;48.112;11.622;2022-08-30T12:37:07;8.57;;;7.80;;
9657;SDS011;4867;48.112;11.622;2022-08-30T12:39:45;23.10;;;16.50;;
9657;SDS011;4867;48.112;11.622;2022-08-30T12:42:20;7.13;;;6.43;;
9657;SDS011;4867;48.112;11.622;2022-08-30T12:44:48;9.43;;;8.43;;
9657;SDS011;4867;48.112;11.622;2022-08-30T12:47:22;7.90;;;7.10;;
9657;SDS011;4867;48.112;11.622;2022-08-30T12:49:56;14.18;;;12.68;;
9657;SDS011;4867;48.112;11.622;2022-08-30T12:52:29;11.15;;;7.68;;
9657;SDS011;4867;48.112;11.622;2022-08-30T12:55:06;6.53;;;5.85;;
9657;SDS011;4867;48.112;11.622;2022-08-30T13:00:30;6.88;;;5.75;;
9657;SDS011;4867;48.112;11.622;2022-08-30T13:05:58;6.57;;;5.60;;
9657;SDS011;4867;48.112;11.622;2022-08-30T13:08:33;8.73;;;6.40;;
9657;SDS011;4867;48.112;11.622;2022-08-30T13:13:49;7.30;;;6.70;;
9657;SDS011;4867;48.112;11.622;2022-08-30T13:18:49;11.43;;;6.30;;
9657;SDS011;4867;48.112;11.622;2022-08-30T13:23:53;6.70;;;6.10;;
9657;SDS011;4867;48.112;11.622;2022-08-30T13:26:30;7.32;;;6.63;;
9657;SDS011;4867;48.112;11.622;2022-08-30T13:29:04;6.63;;;5.97;;
9657;SDS011;4867;48.112;11.622;2022-08-30T13:31:35;7.60;;;6.57;;
9657;SDS011;4867;48.112;11.622;2022-08-30T13:34:02;8.38;;;6.20;;
9657;SDS011;4867;48.112;11.622;2022-08-30T13:36:31;7.05;;;6.35;;
9657;SDS011;4867;48.112;11.622;2022-08-30T13:39:00;7.07;;;6.50;;
9657;SDS011;4867;48.112;11.622;2022-08-30T13:41:28;7.03;;;6.50;;
9657;SDS011;4867;48.112;11.622;2022-08-30T13:44:00;7.10;;;6.32;;
9657;SDS011;4867;48.112;11.622;2022-08-30T13:46:40;6.40;;;5.90;;
9657;SDS011;4867;48.112;11.622;2022-08-30T13:49:21;6.97;;;6.30;;
9657;SDS011;4867;48.112;11.622;2022-08-30T13:52:13;6.75;;;6.07;;
9657;SDS011;4867;48.112;11.622;2022-08-30T13:54:48;7.05;;;6.43;;
9657;SDS011;4867;48.112;11.622;2022-08-30T13:57:17;7.15;;;6.55;;
9657;SDS011;4867;48.112;11.622;2022-08-30T14:00:07;7.05;;;6.25;;
9657;SDS011;4867;48.112;11.622;2022-08-30T14:02:37;7.15;;;5.72;;
9657;SDS011;4867;48.112;11.622;2022-08-30T14:05:14;6.90;;;6.18;;
9657;SDS011;4867;48.112;11.622;2022-08-30T14:08:01;6.68;;;5.78;;
9657;SDS011;4867;48.112;11.622;2022-08-30T14:10:31;7.38;;;5.93;;
9657;SDS011;4867;48.112;11.622;2022-08-30T14:13:10;7.47;;;5.85;;
9657;SDS011;4867;48.112;11.622;2022-08-30T14:15:38;7.78;;;6.35;;
9657;SDS011;4867;48.112;11.622;2022-08-30T14:18:06;6.47;;;5.78;;
9657;SDS011;4867;48.112;11.622;2022-08-30T14:20:34;7.78;;;6.00;;
9657;SDS011;4867;48.112;11.622;2022-08-30T14:23:05;7.05;;;5.78;;
9657;SDS011;4867;48.112;11.622;2022-08-30T14:25:35;6.57;;;5.60;;
9657;SDS011;4867;48.112;11.622;2022-08-30T14:28:02;6.65;;;5.95;;
9657;SDS011;4867;48.112;11.622;2022-08-30T14:30:29;6.35;;;5.75;;
9657;SDS011;4867;48.112;11.622;2022-08-30T14:32:58;7.90;;;7.10;;
9657;SDS011;4867;48.112;11.622;2022-08-30T14:35:25;5.90;;;5.45;;
9657;SDS011;4867;48.112;11.622;2022-08-30T14:37:52;6.22;;;5.72;;
9657;SDS011;4867;48.112;11.622;2022-08-30T14:40:19;6.70;;;5.70;;
9657;SDS011;4867;48.112;11.622;2022-08-30T14:42:46;5.95;;;5.45;;
9657;SDS011;4867;48.112;11.622;2022-08-30T14:45:13;5.82;;;5.25;;
9657;SDS011;4867;48.112;11.622;2022-08-30T14:47:42;5.40;;;4.93;;
9657;SDS011;4867;48.112;11.622;2022-08-30T14:50:08;6.25;;;5.75;;
9657;SDS011;4867;48.112;11.622;2022-08-30T14:52:35;6.25;;;5.63;;
9657;SDS011;4867;48.112;11.622;2022-08-30T14:55:03;6.25;;;5.70;;
9657;SDS011;4867;48.112;11.622;2022-08-30T14:57:34;8.90;;;6.95;;
9657;SDS011;4867;48.112;11.622;2022-08-30T15:00:04;5.63;;;5.13;;
9657;SDS011;4867;48.112;11.622;2022-08-30T15:02:32;6.65;;;5.63;;
9657;SDS011;4867;48.112;11.622;2022-08-30T15:05:00;6.38;;;5.80;;
9657;SDS011;4867;48.112;11.622;2022-08-30T15:07:27;6.18;;;5.68;;
9657;SDS011;4867;48.112;11.622;2022-08-30T15:09:54;5.95;;;5.35;;
9657;SDS011;4867;48.112;11.622;2022-08-30T15:12:20;7.05;;;6.35;;
9657;SDS011;4867;48.112;11.622;2022-08-30T15:14:47;7.97;;;5.72;;
9657;SDS011;4867;48.112;11.622;2022-08-30T15:17:14;6.18;;;5.18;;
9657;SDS011;4867;48.112;11.622;2022-08-30T15:19:43;7.55;;;5.45;;
9657;SDS011;4867;48.112;11.622;2022-08-30T15:22:10;5.43;;;4.88;;
9657;SDS011;4867;48.112;11.622;2022-08-30T15:24:37;5.80;;;5.30;;
9657;SDS011;4867;48.112;11.622;2022-08-30T15:27:06;5.50;;;5.00;;
9657;SDS011;4867;48.112;11.622;2022-08-30T15:29:32;6.55;;;5.22;;
9657;SDS011;4867;48.112;11.622;2022-08-30T15:32:00;12.18;;;5.28;;
9657;SDS011;4867;48.112;11.622;2022-08-30T15:34:30;6.40;;;5.07;;
9657;SDS011;4867;48.112;11.622;2022-08-30T15:36:58;5.75;;;5.28;;
9657;SDS011;4867;48.112;11.622;2022-08-30T15:39:25;6.30;;;4.70;;
9657;SDS011;4867;48.112;11.622;2022-08-30T15:41:52;5.93;;;5.32;;
9657;SDS011;4867;48.112;11.622;2022-08-30T15:44:25;5.88;;;5.30;;
9657;SDS011;4867;48.112;11.622;2022-08-30T15:46:51;6.28;;;5.28;;
9657;SDS011;4867;48.112;11.622;2022-08-30T15:49:19;28.85;;;7.22;;
9657;SDS011;4867;48.112;11.622;2022-08-30T15:51:48;5.63;;;5.22;;
9657;SDS011;4867;48.112;11.622;2022-08-30T15:54:19;5.82;;;5.32;;
9657;SDS011;4867;48.112;11.622;2022-08-30T15:56:47;10.95;;;5.47;;
9657;SDS011;4867;48.112;11.622;2022-08-30T15:59:15;53.03;;;9.85;;
9657;SDS011;4867;48.112;11.622;2022-08-30T16:01:43;49.58;;;9.63;;
9657;SDS011;4867;48.112;11.622;2022-08-30T16:04:13;23.40;;;7.15;;
9657;SDS011;4867;48.112;11.622;2022-08-30T16:06:44;5.85;;;5.25;;
9657;SDS011;4867;48.112;11.622;2022-08-30T16:09:11;5.68;;;5.18;;
9657;SDS011;4867;48.112;11.622;2022-08-30T16:11:39;5.70;;;5.20;;
9657;SDS011;4867;48.112;11.622;2022-08-30T16:14:06;6.22;;;5.32;;
9657;SDS011;4867;48.112;11.622;2022-08-30T16:16:34;6.13;;;5.53;;
9657;SDS011;4867;48.112;11.622;2022-08-30T16:19:05;7.68;;;5.80;;
9657;SDS011;4867;48.112;11.622;2022-08-30T16:21:33;5.82;;;5.28;;
9657;SDS011;4867;48.112;11.622;2022-08-30T16:24:03;7.03;;;5.75;;
9657;SDS011;4867;48.112;11.622;2022-08-30T16:26:31;8.70;;;4.93;;
9657;SDS011;4867;48.112;11.622;2022-08-30T16:29:00;5.80;;;5.20;;
9657;SDS011;4867;48.112;11.622;2022-08-30T16:31:29;8.02;;;5.72;;
9657;SDS011;4867;48.112;11.622;2022-08-30T16:33:57;5.90;;;5.32;;
9657;SDS011;4867;48.112;11.622;2022-08-30T16:36:29;5.80;;;5.30;;
9657;SDS011;4867;48.112;11.622;2022-08-30T16:38:57;6.80;;;6.00;;
9657;SDS011;4867;48.112;11.622;2022-08-30T16:41:24;5.38;;;4.88;;
9657;SDS011;4867;48.112;11.622;2022-08-30T16:43:51;6.68;;;5.22;;